Time;durP1;ratioP1;P1;durP2;ratioP2;P2;SDS_P1;SDS_P2;PMS_P1;PMS_P2;Temp;Humidity;BMP_temperature;BMP_pressure;BME280_temperature;BME280_humidity;BME280_pressure;Samples;Min_cycle;Max_cycle;Signal;HPM_P1;HPM_P2
2023/08/12 00:01:40;;;;;;;5.30;4.80;;;23.80;59.10;;;;;;5000050;28;20227;-81
2023/08/12 00:04:07;;;;;;;6.38;4.88;;;23.80;59.10;;;;;;5001749;28;20213;-81
2023/08/12 00:06:34;;;;;;;5.28;4.88;;;23.80;59.10;;;;;;5001765;28;20205;-81
2023/08/12 00:09:03;;;;;;;5.35;4.55;;;23.80;59.20;;;;;;5002157;28;20196;-81
2023/08/12 00:11:31;;;;;;;5.95;5.35;;;23.80;59.20;;;;;;5001330;28;20224;-81
2023/08/12 00:13:58;;;;;;;6.10;4.90;;;23.80;59.20;;;;;;5001911;28;20204;-81
2023/08/12 00:16:25;;;;;;;7.35;4.90;;;23.80;59.30;;;;;;5001439;28;20239;-81
2023/08/12 00:18:54;;;;;;;7.13;5.22;;;23.80;59.20;;;;;;5001606;28;20564;-81
2023/08/12 00:21:21;;;;;;;6.85;5.25;;;23.80;59.10;;;;;;5001205;28;20225;-81
2023/08/12 00:23:49;;;;;;;6.18;4.90;;;23.80;59.30;;;;;;5001220;28;20204;-81
2023/08/12 00:26:16;;;;;;;5.68;4.70;;;23.70;59.20;;;;;;5005564;28;20201;-81
2023/08/12 00:28:43;;;;;;;6.00;5.40;;;23.70;59.20;;;;;;5016731;28;20548;-81
2023/08/12 00:31:10;;;;;;;5.38;4.88;;;23.70;59.20;;;;;;5018450;28;20216;-81
2023/08/12 00:33:37;;;;;;;5.25;4.65;;;23.70;59.30;;;;;;5016240;28;20201;-81
2023/08/12 00:36:06;;;;;;;5.97;4.60;;;23.70;59.20;;;;;;5005618;28;20255;-81
2023/08/12 00:38:34;;;;;;;5.97;4.72;;;23.70;59.40;;;;;;5004495;28;20640;-82
2023/08/12 00:41:01;;;;;;;5.80;5.05;;;23.70;59.40;;;;;;4999671;28;20236;-81
2023/08/12 00:43:28;;;;;;;5.30;4.55;;;23.60;59.30;;;;;;4999394;28;20201;-81
2023/08/12 00:45:56;;;;;;;5.75;4.57;;;23.70;59.40;;;;;;5002851;28;20232;-81
2023/08/12 00:48:23;;;;;;;5.25;4.75;;;23.60;59.30;;;;;;5003841;28;20200;-81
2023/08/12 00:50:50;;;;;;;5.43;4.38;;;23.60;59.40;;;;;;5003368;28;20280;-81
2023/08/12 00:53:18;;;;;;;6.07;5.18;;;23.60;59.30;;;;;;4987705;28;20211;-81
2023/08/12 00:55:47;;;;;;;5.03;4.53;;;23.60;59.80;;;;;;5003727;28;20196;-81
2023/08/12 00:58:14;;;;;;;6.32;4.80;;;23.60;60.20;;;;;;5003609;28;20224;-81
2023/08/12 01:00:42;;;;;;;5.18;4.68;;;23.60;60.80;;;;;;5002628;28;20224;-81
2023/08/12 01:03:09;;;;;;;4.65;4.25;;;23.60;60.70;;;;;;5002760;28;20262;-81
2023/08/12 01:05:36;;;;;;;4.50;4.10;;;23.60;60.70;;;;;;5002901;28;20205;-81
2023/08/12 01:08:03;;;;;;;8.07;4.68;;;23.60;60.50;;;;;;5002797;28;20284;-81
2023/08/12 01:10:36;;;;;;;5.03;4.53;;;23.60;60.40;;;;;;5002600;28;20247;-81
2023/08/12 01:13:09;;;;;;;4.80;4.40;;;23.60;60.30;;;;;;5002425;28;20564;-81
2023/08/12 01:15:36;;;;;;;4.85;4.38;;;23.60;60.30;;;;;;5002921;28;20193;-81
2023/08/12 01:18:04;;;;;;;5.57;4.45;;;23.50;60.10;;;;;;5001023;28;20203;-81
2023/08/12 01:20:31;;;;;;;4.93;4.40;;;23.60;60.10;;;;;;4999291;28;20229;-81
2023/08/12 01:22:59;;;;;;;6.45;4.68;;;23.60;60.20;;;;;;4999825;28;20200;-81
2023/08/12 01:25:28;;;;;;;4.82;4.32;;;23.60;60.00;;;;;;4999785;28;20204;-81
2023/08/12 01:27:56;;;;;;;5.65;4.40;;;23.60;60.00;;;;;;4999772;28;20638;-81
2023/08/12 01:30:23;;;;;;;5.38;4.38;;;23.50;59.90;;;;;;4999273;28;20308;-81
2023/08/12 01:32:54;;;;;;;5.00;4.22;;;23.50;59.80;;;;;;4999270;28;20570;-81
2023/08/12 01:35:21;;;;;;;4.53;4.13;;;23.50;59.80;;;;;;4999032;28;20200;-81
2023/08/12 01:37:50;;;;;;;4.70;4.30;;;23.50;59.80;;;;;;4997904;28;20200;-80
2023/08/12 01:40:18;;;;;;;4.13;3.83;;;23.50;59.80;;;;;;4998210;28;20270;-81
2023/08/12 01:42:46;;;;;;;4.88;4.45;;;23.50;59.60;;;;;;4999171;28;20593;-81
2023/08/12 01:45:15;;;;;;;5.32;4.32;;;23.50;59.60;;;;;;4998849;28;20259;-81
2023/08/12 01:47:44;;;;;;;5.32;4.80;;;23.50;59.60;;;;;;4998811;28;20189;-81
2023/08/12 01:50:11;;;;;;;6.55;4.53;;;23.50;59.60;;;;;;4998212;28;20671;-81
2023/08/12 01:52:38;;;;;;;5.40;4.70;;;23.50;59.60;;;;;;4998792;28;20612;-81
2023/08/12 01:55:05;;;;;;;5.40;4.90;;;23.50;59.50;;;;;;4998181;28;20207;-81
2023/08/12 01:57:33;;;;;;;5.75;5.25;;;23.40;59.50;;;;;;4998133;28;20228;-81
2023/08/12 02:00:01;;;;;;;6.43;5.50;;;23.40;59.50;;;;;;4997505;28;20196;-81
2023/08/12 02:02:28;;;;;;;6.00;5.28;;;23.40;59.50;;;;;;4997981;28;20567;-81
2023/08/12 02:04:55;;;;;;;5.50;5.00;;;23.40;59.50;;;;;;4997738;28;20259;-80
2023/08/12 02:07:25;;;;;;;5.55;5.00;;;23.40;59.60;;;;;;4996843;28;20197;-81
2023/08/12 02:09:53;;;;;;;5.70;5.20;;;23.40;59.60;;;;;;4997400;28;20224;-81
2023/08/12 02:12:20;;;;;;;6.00;5.40;;;23.40;59.60;;;;;;4999131;28;20196;-81
2023/08/12 02:14:47;;;;;;;5.88;5.30;;;23.40;59.70;;;;;;4999264;28;20204;-81
2023/08/12 02:17:16;;;;;;;7.78;6.20;;;23.40;59.70;;;;;;4998616;28;20203;-81
2023/08/12 02:19:43;;;;;;;6.50;5.90;;;23.30;59.60;;;;;;4999430;28;20232;-81
2023/08/12 02:22:11;;;;;;;6.35;5.70;;;23.30;59.70;;;;;;4997504;28;20216;-81
2023/08/12 02:24:38;;;;;;;6.50;5.70;;;23.30;59.80;;;;;;4998009;28;20303;-81
2023/08/12 02:27:05;;;;;;;6.85;5.80;;;23.30;59.70;;;;;;4997835;28;20204;-81
2023/08/12 02:29:32;;;;;;;6.22;5.63;;;23.30;59.70;;;;;;4997848;28;20288;-81
2023/08/12 02:32:00;;;;;;;7.13;5.80;;;23.40;59.80;;;;;;5014992;28;20213;-81
2023/08/12 02:34:28;;;;;;;6.38;5.78;;;23.30;59.70;;;;;;4982617;28;20201;-81
2023/08/12 02:36:55;;;;;;;6.07;5.40;;;23.30;59.70;;;;;;4998430;28;20645;-81
2023/08/12 02:39:22;;;;;;;6.40;5.78;;;23.30;59.70;;;;;;4998013;28;20204;-81
2023/08/12 02:41:49;;;;;;;6.05;5.45;;;23.30;59.70;;;;;;4997542;28;20251;-81
2023/08/12 02:44:16;;;;;;;6.60;5.80;;;23.30;59.70;;;;;;4997846;28;20254;-81
2023/08/12 02:46:43;;;;;;;6.20;5.70;;;23.40;59.80;;;;;;4998801;28;20204;-81
2023/08/12 02:49:10;;;;;;;5.25;4.75;;;23.30;59.80;;;;;;4997867;28;20196;-81
2023/08/12 02:51:39;;;;;;;5.75;5.10;;;23.30;59.80;;;;;;4997668;28;20220;-81
2023/08/12 02:54:06;;;;;;;5.72;5.22;;;23.30;59.80;;;;;;4997666;28;20201;-81
2023/08/12 02:56:33;;;;;;;5.40;4.90;;;23.30;59.80;;;;;;4997543;28;20204;-81
2023/08/12 02:59:00;;;;;;;6.07;4.90;;;23.30;59.80;;;;;;4998330;28;20331;-81
2023/08/12 03:01:27;;;;;;;5.68;5.07;;;23.30;59.80;;;;;;4997369;28;20232;-81
2023/08/12 03:03:54;;;;;;;5.72;5.22;;;23.30;60.00;;;;;;4997542;28;20208;-81
2023/08/12 03:06:22;;;;;;;5.43;4.93;;;23.30;60.00;;;;;;4981146;28;20205;-81
2023/08/12 03:08:50;;;;;;;5.60;5.03;;;23.30;60.00;;;;;;4981021;28;20196;-81
2023/08/12 03:11:18;;;;;;;5.93;5.32;;;23.30;59.90;;;;;;4997825;28;20311;-81
2023/08/12 03:13:45;;;;;;;8.82;5.00;;;23.30;59.80;;;;;;4998043;28;20201;-81
2023/08/12 03:16:14;;;;;;;7.63;5.53;;;23.30;59.80;;;;;;4997138;28;20247;-81
2023/08/12 03:18:42;;;;;;;6.60;5.55;;;23.30;59.70;;;;;;5000177;28;20192;-81
2023/08/12 03:21:09;;;;;;;5.40;4.90;;;23.30;59.60;;;;;;5002953;28;20232;-81
2023/08/12 03:23:36;;;;;;;5.70;5.00;;;23.30;59.60;;;;;;5003249;28;20196;-81
2023/08/12 03:26:05;;;;;;;5.65;5.13;;;23.30;59.60;;;;;;5001703;28;20193;-81
2023/08/12 03:28:33;;;;;;;5.45;4.93;;;23.40;59.60;;;;;;4985329;28;20671;-81
2023/08/12 03:31:00;;;;;;;5.13;4.72;;;23.40;59.70;;;;;;5001375;28;20213;-81
2023/08/12 03:33:27;;;;;;;5.38;4.88;;;23.40;59.60;;;;;;5001910;28;20188;-81
2023/08/12 03:35:56;;;;;;;5.85;5.35;;;23.40;59.40;;;;;;5001851;28;20197;-81
2023/08/12 03:38:23;;;;;;;5.40;4.90;;;23.50;59.50;;;;;;5002340;28;20551;-81
2023/08/12 03:40:51;;;;;;;6.10;5.10;;;23.50;59.50;;;;;;5002520;28;20221;-81
2023/08/12 03:43:20;;;;;;;5.70;5.13;;;23.40;59.30;;;;;;5002016;28;20223;-81
2023/08/12 03:45:48;;;;;;;5.85;5.35;;;23.50;59.40;;;;;;5001899;28;20280;-81
2023/08/12 03:48:19;;;;;;;5.45;4.93;;;23.50;59.30;;;;;;4986290;28;20704;-81
2023/08/12 03:50:47;;;;;;;5.60;5.00;;;23.50;59.20;;;;;;5001806;28;20719;-80
2023/08/12 03:53:14;;;;;;;5.75;5.25;;;23.60;59.20;;;;;;5002069;28;20284;-81
2023/08/12 03:55:42;;;;;;;5.70;5.00;;;23.60;59.20;;;;;;5001091;28;20279;-81
2023/08/12 03:58:10;;;;;;;5.82;4.85;;;23.60;59.10;;;;;;5000994;28;20192;-81
2023/08/12 04:00:43;;;;;;;5.50;4.88;;;23.60;59.10;;;;;;5001040;28;20216;-81
2023/08/12 04:03:12;;;;;;;4.80;4.40;;;23.60;59.00;;;;;;5000710;28;20200;-81
2023/08/12 04:05:39;;;;;;;5.90;5.13;;;23.70;59.10;;;;;;5000162;28;20205;-81
2023/08/12 04:08:06;;;;;;;5.10;4.57;;;23.70;59.00;;;;;;5000373;28;20200;-81
2023/08/12 04:10:33;;;;;;;5.18;4.75;;;23.70;59.00;;;;;;4999808;28;20224;-81
2023/08/12 04:12:59;;;;;;;5.30;4.78;;;23.70;59.00;;;;;;5000520;28;20594;-81
2023/08/12 04:15:26;;;;;;;5.93;4.97;;;23.70;58.90;;;;;;4999513;28;20208;-81
2023/08/12 04:17:55;;;;;;;5.30;4.72;;;23.70;59.00;;;;;;4999584;28;20201;-81
2023/08/12 04:20:23;;;;;;;5.22;4.68;;;23.70;59.00;;;;;;5000360;28;20231;-81
2023/08/12 04:22:50;;;;;;;5.10;4.68;;;23.70;59.10;;;;;;5001072;28;20212;-81
2023/08/12 04:25:17;;;;;;;4.93;4.50;;;23.70;59.30;;;;;;4999978;28;20197;-81
2023/08/12 04:27:47;;;;;;;5.55;4.47;;;23.60;59.40;;;;;;5000104;28;20200;-81
2023/08/12 04:30:15;;;;;;;5.25;4.75;;;23.70;59.40;;;;;;4999217;28;20223;-81
2023/08/12 04:32:42;;;;;;;5.00;4.50;;;23.70;59.40;;;;;;5018368;28;20264;-81
2023/08/12 04:35:11;;;;;;;5.45;4.95;;;23.70;59.50;;;;;;5000546;28;20203;-81
2023/08/12 04:37:39;;;;;;;5.30;4.80;;;23.70;59.60;;;;;;4999949;28;20197;-81
2023/08/12 04:40:09;;;;;;;4.95;4.47;;;23.60;59.60;;;;;;5000306;28;20306;-81
2023/08/12 04:42:37;;;;;;;5.05;4.65;;;23.70;59.60;;;;;;4999997;28;20311;-81
2023/08/12 04:45:06;;;;;;;5.57;4.70;;;23.60;59.60;;;;;;4984047;28;20271;-81
2023/08/12 04:47:34;;;;;;;5.07;4.68;;;23.60;59.60;;;;;;4999778;28;20232;-81
2023/08/12 04:50:01;;;;;;;4.80;4.47;;;23.60;59.70;;;;;;4999364;28;20201;-81
2023/08/12 04:52:31;;;;;;;5.05;4.57;;;23.60;59.80;;;;;;4999542;28;20199;-81
2023/08/12 04:54:58;;;;;;;5.30;4.80;;;23.60;59.80;;;;;;5000585;28;20255;-81
2023/08/12 04:57:26;;;;;;;5.32;4.93;;;23.60;59.90;;;;;;4999394;28;20278;-81
2023/08/12 04:59:54;;;;;;;5.30;4.80;;;23.60;60.00;;;;;;4999252;28;20298;-81
2023/08/12 05:02:21;;;;;;;5.10;4.60;;;23.60;60.00;;;;;;4999008;28;20232;-81
2023/08/12 05:04:49;;;;;;;5.72;5.22;;;23.60;60.10;;;;;;4999525;28;20200;-82
2023/08/12 05:07:16;;;;;;;5.38;4.95;;;23.60;60.10;;;;;;4999453;28;20205;-82
2023/08/12 05:09:45;;;;;;;5.18;4.68;;;23.60;60.20;;;;;;4999628;28;20200;-82
2023/08/12 05:12:14;;;;;;;4.88;4.47;;;23.60;60.20;;;;;;4999474;28;20217;-82
2023/08/12 05:14:41;;;;;;;7.50;4.85;;;23.60;60.30;;;;;;4983026;28;20199;-82
2023/08/12 05:17:09;;;;;;;5.20;4.80;;;23.50;60.30;;;;;;4998928;28;20196;-82
2023/08/12 05:19:37;;;;;;;5.13;4.72;;;23.60;60.30;;;;;;4998908;28;20231;-82
2023/08/12 05:22:04;;;;;;;5.43;4.93;;;23.60;60.40;;;;;;4999018;28;20247;-82
2023/08/12 05:24:31;;;;;;;5.20;4.75;;;23.60;60.40;;;;;;4982729;28;20232;-82
2023/08/12 05:27:00;;;;;;;5.40;4.90;;;23.60;60.40;;;;;;4998675;28;20571;-82
2023/08/12 05:29:27;;;;;;;5.22;4.75;;;23.60;60.30;;;;;;4998663;28;20683;-82
2023/08/12 05:31:54;;;;;;;5.20;4.70;;;23.60;60.40;;;;;;4998190;28;20589;-82
2023/08/12 05:34:21;;;;;;;5.32;4.82;;;23.60;60.50;;;;;;4998766;28;20679;-82
2023/08/12 05:36:49;;;;;;;5.07;4.65;;;23.60;60.50;;;;;;4998666;28;20200;-82
2023/08/12 05:39:16;;;;;;;5.13;4.70;;;23.60;60.50;;;;;;4998060;28;20205;-82
2023/08/12 05:41:43;;;;;;;5.72;4.60;;;23.70;60.50;;;;;;4997286;28;20216;-82
2023/08/12 05:44:11;;;;;;;5.20;4.80;;;23.60;60.40;;;;;;4998030;28;20240;-82
2023/08/12 05:46:39;;;;;;;5.22;4.72;;;23.70;60.50;;;;;;4998282;28;20205;-82
2023/08/12 05:49:06;;;;;;;7.30;4.82;;;23.70;60.50;;;;;;4998030;28;20208;-82
2023/08/12 05:51:33;;;;;;;5.45;4.60;;;23.70;60.50;;;;;;4998078;28;20556;-82
2023/08/12 05:54:00;;;;;;;4.78;4.38;;;23.70;60.60;;;;;;4997949;28;20208;-82
2023/08/12 05:56:28;;;;;;;4.93;4.53;;;23.70;60.70;;;;;;4998273;28;20204;-82
2023/08/12 05:58:55;;;;;;;4.90;4.50;;;23.70;60.80;;;;;;4997920;28;20204;-82
2023/08/12 06:01:24;;;;;;;4.70;4.30;;;23.70;60.70;;;;;;4997984;28;20244;-82
2023/08/12 06:03:50;;;;;;;5.03;4.18;;;23.70;60.70;;;;;;4997987;28;20197;-82
2023/08/12 06:06:17;;;;;;;4.15;3.85;;;23.70;60.90;;;;;;4997735;28;20197;-82
2023/08/12 06:08:44;;;;;;;4.72;4.25;;;23.80;61.20;;;;;;4997958;28;20200;-82
2023/08/12 06:11:11;;;;;;;4.85;4.35;;;23.80;61.20;;;;;;4998870;28;20234;-82
2023/08/12 06:13:38;;;;;;;5.22;4.35;;;23.80;61.30;;;;;;4998551;28;20196;-82
2023/08/12 06:16:05;;;;;;;4.80;4.40;;;23.80;61.40;;;;;;4998719;28;20232;-82
2023/08/12 06:18:35;;;;;;;4.28;3.88;;;23.90;61.30;;;;;;4998416;28;20196;-82
2023/08/12 06:21:02;;;;;;;5.05;4.43;;;23.90;61.00;;;;;;4997955;28;20232;-82
2023/08/12 06:23:29;;;;;;;4.43;4.03;;;24.00;61.90;;;;;;4998085;28;20296;-82
2023/08/12 06:25:57;;;;;;;4.75;4.35;;;24.00;61.00;;;;;;4998020;28;20378;-82
2023/08/12 06:28:24;;;;;;;4.60;4.15;;;24.00;61.00;;;;;;4998258;28;20255;-82
2023/08/12 06:30:51;;;;;;;4.47;4.07;;;24.00;61.10;;;;;;4983839;28;20232;-82
2023/08/12 06:33:18;;;;;;;4.95;4.55;;;24.00;61.00;;;;;;5000532;28;20201;-82
2023/08/12 06:35:48;;;;;;;4.80;4.40;;;24.10;61.30;;;;;;4999795;28;20272;-82
2023/08/12 06:38:15;;;;;;;4.85;4.35;;;24.10;61.10;;;;;;5000186;28;20254;-82
2023/08/12 06:40:42;;;;;;;4.50;4.10;;;24.10;60.90;;;;;;4999530;28;20220;-82
2023/08/12 06:43:10;;;;;;;4.90;4.40;;;24.20;60.90;;;;;;4999694;28;20248;-82
2023/08/12 06:45:37;;;;;;;4.57;4.18;;;24.20;60.90;;;;;;4986184;28;20205;-82
2023/08/12 06:48:04;;;;;;;4.95;4.40;;;24.30;60.90;;;;;;5011482;28;20267;-82
2023/08/12 06:50:33;;;;;;;4.57;4.18;;;24.30;60.70;;;;;;5012099;28;20228;-82
2023/08/12 06:53:01;;;;;;;4.20;3.90;;;24.40;60.50;;;;;;5010665;28;20197;-82
2023/08/12 06:55:29;;;;;;;4.20;3.80;;;24.50;60.30;;;;;;4986407;28;20201;-82
2023/08/12 06:57:56;;;;;;;3.70;3.40;;;24.60;60.10;;;;;;5003545;28;20201;-82
2023/08/12 07:00:23;;;;;;;4.63;4.22;;;24.70;60.00;;;;;;5002193;28;20220;-82
2023/08/12 07:02:50;;;;;;;5.28;4.03;;;24.80;59.60;;;;;;5002229;28;20228;-82
2023/08/12 07:05:17;;;;;;;5.38;4.28;;;25.00;59.30;;;;;;5002100;28;20636;-82
2023/08/12 07:07:44;;;;;;;4.20;3.80;;;25.20;58.80;;;;;;5000807;28;20196;-82
2023/08/12 07:10:13;;;;;;;4.57;4.10;;;25.40;58.20;;;;;;4996394;28;20197;-82
2023/08/12 07:12:40;;;;;;;4.47;4.07;;;25.60;57.70;;;;;;4997747;28;20203;-81
2023/08/12 07:15:10;;;;;;;4.50;4.07;;;25.70;57.10;;;;;;4997699;28;20207;-82
2023/08/12 07:17:37;;;;;;;4.03;3.70;;;25.80;56.70;;;;;;4997206;28;20212;-82
2023/08/12 07:20:05;;;;;;;4.35;4.00;;;25.90;56.20;;;;;;4996711;28;20228;-81
2023/08/12 07:22:33;;;;;;;4.35;3.95;;;26.00;55.90;;;;;;4996887;28;20239;-81
2023/08/12 07:25:00;;;;;;;4.43;4.03;;;26.10;55.60;;;;;;4997168;28;20204;-81
2023/08/12 07:27:28;;;;;;;4.35;3.95;;;26.20;54.90;;;;;;4996862;28;20663;-82
2023/08/12 07:29:56;;;;;;;4.40;4.00;;;26.40;54.80;;;;;;4996742;28;20215;-82
2023/08/12 07:32:23;;;;;;;3.85;3.55;;;26.50;54.40;;;;;;4999431;28;20558;-82
2023/08/12 07:34:49;;;;;;;8.40;4.63;;;26.60;53.90;;;;;;4983860;28;20208;-82
2023/08/12 07:37:17;;;;;;;7.28;4.82;;;26.70;54.00;;;;;;4998543;28;20251;-82
2023/08/12 07:39:44;;;;;;;5.72;4.60;;;26.80;54.70;;;;;;4999387;28;20222;-82
2023/08/12 07:42:11;;;;;;;7.30;4.70;;;26.90;54.00;;;;;;4999064;28;20322;-82
2023/08/12 07:44:40;;;;;;;6.18;4.82;;;27.00;54.20;;;;;;4998255;28;20197;-82
2023/08/12 07:47:07;;;;;;;5.85;4.53;;;27.10;55.40;;;;;;4999460;28;20204;-82
2023/08/12 07:49:34;;;;;;;5.45;4.47;;;27.10;55.10;;;;;;4998542;28;20206;-82
2023/08/12 07:52:01;;;;;;;5.10;4.60;;;27.10;54.00;;;;;;4998287;28;20212;-82
2023/08/12 07:54:28;;;;;;;6.63;4.95;;;27.20;54.00;;;;;;4999104;28;20204;-82
2023/08/12 07:56:55;;;;;;;6.40;4.50;;;27.20;53.80;;;;;;4998778;28;20250;-81
2023/08/12 07:59:22;;;;;;;5.35;4.63;;;27.30;53.70;;;;;;4998195;28;20647;-82
2023/08/12 08:01:50;;;;;;;5.03;4.50;;;27.40;53.50;;;;;;4998429;28;20212;-82
2023/08/12 08:04:17;;;;;;;4.50;4.10;;;27.40;53.40;;;;;;4997640;28;20216;-82
2023/08/12 08:06:44;;;;;;;4.60;4.15;;;27.50;53.10;;;;;;5000440;28;20651;-82
2023/08/12 08:09:12;;;;;;;7.60;6.32;;;27.50;53.30;;;;;;5001025;28;20200;-82
2023/08/12 08:11:39;;;;;;;23.15;13.23;;;27.60;53.20;;;;;;4999997;28;20259;-82
2023/08/12 08:14:06;;;;;;;20.83;13.63;;;27.60;53.30;;;;;;5000501;28;20227;-82
2023/08/12 08:16:33;;;;;;;22.65;14.60;;;27.60;53.50;;;;;;5000867;28;20196;-83
2023/08/12 08:19:02;;;;;;;10.00;8.60;;;27.60;53.50;;;;;;5000196;28;20199;-83
2023/08/12 08:21:29;;;;;;;15.35;10.98;;;27.70;53.70;;;;;;5000579;28;20586;-83
2023/08/12 08:23:56;;;;;;;9.65;6.47;;;27.70;53.60;;;;;;5000114;28;20278;-83
2023/08/12 08:26:23;;;;;;;8.63;7.72;;;27.80;53.60;;;;;;4984228;28;20246;-83
2023/08/12 08:28:51;;;;;;;8.75;6.75;;;27.90;53.20;;;;;;4999922;28;20204;-83
2023/08/12 08:31:19;;;;;;;6.65;5.95;;;27.90;53.00;;;;;;5000278;28;20327;-83
2023/08/12 08:33:45;;;;;;;7.68;5.20;;;27.90;53.10;;;;;;4983884;28;20239;-82
2023/08/12 08:36:14;;;;;;;5.90;5.00;;;27.90;53.10;;;;;;5002538;28;20200;-82
2023/08/12 08:38:41;;;;;;;5.82;4.93;;;28.00;52.90;;;;;;5002738;28;20238;-83
2023/08/12 08:41:08;;;;;;;4.88;4.32;;;28.00;52.80;;;;;;5001478;28;20220;-83
2023/08/12 08:43:34;;;;;;;5.68;5.07;;;28.10;52.70;;;;;;5001872;28;20258;-83
2023/08/12 08:46:02;;;;;;;5.90;4.68;;;28.20;52.90;;;;;;5001245;28;20280;-83
2023/08/12 08:48:29;;;;;;;5.07;4.60;;;28.30;52.80;;;;;;5001549;28;20222;-83
2023/08/12 08:50:56;;;;;;;5.63;4.70;;;28.30;52.70;;;;;;5002997;28;20220;-83
2023/08/12 08:53:25;;;;;;;4.90;4.50;;;28.40;52.50;;;;;;5004168;28;20282;-83
2023/08/12 08:55:51;;;;;;;5.15;4.68;;;28.50;52.30;;;;;;5002810;28;20204;-83
2023/08/12 08:58:17;;;;;;;5.18;4.25;;;28.50;52.00;;;;;;5002785;28;20258;-83
2023/08/12 09:00:45;;;;;;;4.72;4.32;;;28.60;52.10;;;;;;5000520;28;20212;-83
2023/08/12 09:03:12;;;;;;;5.20;4.70;;;28.60;51.90;;;;;;5000463;28;20282;-83
2023/08/12 09:05:39;;;;;;;4.82;4.43;;;28.70;52.00;;;;;;5000328;28;20211;-83
2023/08/12 09:08:10;;;;;;;6.40;4.60;;;28.70;51.80;;;;;;5000604;28;20200;-83
2023/08/12 09:10:40;;;;;;;5.90;4.20;;;28.80;51.60;;;;;;4999637;28;20263;-83
2023/08/12 09:13:08;;;;;;;6.03;4.47;;;28.80;51.40;;;;;;4999002;28;20200;-83
2023/08/12 09:15:35;;;;;;;5.05;4.57;;;28.90;51.20;;;;;;4999563;28;20200;-83
2023/08/12 09:18:03;;;;;;;5.10;4.60;;;28.90;51.10;;;;;;4999155;28;20287;-82
2023/08/12 09:20:31;;;;;;;5.00;4.50;;;29.00;51.30;;;;;;4999790;28;20220;-83
2023/08/12 09:22:59;;;;;;;4.70;4.30;;;28.90;51.10;;;;;;4999681;28;20223;-83
2023/08/12 09:25:27;;;;;;;6.53;4.40;;;28.90;51.10;;;;;;4999260;28;20207;-82
2023/08/12 09:27:57;;;;;;;5.07;4.43;;;28.90;51.50;;;;;;4998819;28;20196;-82
2023/08/12 09:30:24;;;;;;;5.03;4.45;;;29.00;51.40;;;;;;4998902;28;20216;-83
2023/08/12 09:33:00;;;;;;;4.20;3.80;;;29.00;51.10;;;;;;4999060;28;20203;-82
2023/08/12 09:35:33;;;;;;;4.82;4.43;;;29.00;51.20;;;;;;5016808;28;20179;-82
2023/08/12 09:38:01;;;;;;;4.50;4.10;;;29.00;51.20;;;;;;4999274;28;20259;-82
2023/08/12 09:40:28;;;;;;;4.45;4.05;;;29.10;51.10;;;;;;4982722;28;20248;-82
2023/08/12 09:42:56;;;;;;;4.95;4.45;;;29.10;50.60;;;;;;4998656;28;20679;-83
2023/08/12 09:45:24;;;;;;;4.20;3.80;;;29.10;50.50;;;;;;4998528;28;20188;-82
2023/08/12 09:47:51;;;;;;;3.83;3.42;;;29.10;50.60;;;;;;4999142;28;20560;-82
2023/08/12 09:50:18;;;;;;;4.13;3.75;;;29.00;50.60;;;;;;4998649;28;20589;-83
2023/08/12 09:52:45;;;;;;;4.20;3.80;;;28.90;50.70;;;;;;4998706;28;20210;-82
2023/08/12 09:55:13;;;;;;;4.10;3.70;;;28.90;50.90;;;;;;4998475;28;20204;-83
2023/08/12 09:57:42;;;;;;;3.40;3.10;;;28.90;50.80;;;;;;4998497;28;20242;-83
2023/08/12 10:00:16;;;;;;;3.40;3.17;;;28.90;50.40;;;;;;4998561;28;20204;-83
2023/08/12 10:02:43;;;;;;;3.40;3.10;;;28.80;50.40;;;;;;4998200;28;20207;-83
2023/08/12 10:05:10;;;;;;;3.58;3.20;;;28.80;50.50;;;;;;4998291;28;20255;-83
2023/08/12 10:07:37;;;;;;;5.03;3.25;;;28.70;50.50;;;;;;4998128;28;20200;-83
2023/08/12 10:10:05;;;;;;;4.53;3.45;;;28.60;50.60;;;;;;4998310;28;20200;-83
2023/08/12 10:12:32;;;;;;;5.15;3.65;;;28.50;50.70;;;;;;5002319;28;20699;-83
2023/08/12 10:15:00;;;;;;;3.90;3.60;;;28.40;50.80;;;;;;4999863;28;20200;-82
2023/08/12 10:17:28;;;;;;;3.58;3.25;;;28.40;50.80;;;;;;4998777;28;20250;-82
2023/08/12 10:19:57;;;;;;;3.97;3.58;;;28.30;50.90;;;;;;4998770;28;20208;-82
2023/08/12 10:22:24;;;;;;;3.63;3.33;;;28.20;51.20;;;;;;4998430;28;20294;-80
2023/08/12 10:24:51;;;;;;;3.63;3.10;;;28.20;51.50;;;;;;4998754;28;20220;-81
2023/08/12 10:27:19;;;;;;;3.15;2.95;;;28.10;51.40;;;;;;4998062;28;20204;-81
2023/08/12 10:29:47;;;;;;;4.65;3.30;;;28.10;51.40;;;;;;4998106;28;20204;-81
2023/08/12 10:32:14;;;;;;;3.13;2.92;;;28.00;51.60;;;;;;4998036;28;20699;-81
2023/08/12 10:34:43;;;;;;;3.33;3.03;;;28.00;51.60;;;;;;4998951;28;20203;-83
2023/08/12 10:37:11;;;;;;;3.40;3.10;;;27.90;52.10;;;;;;4999968;28;20207;-83
2023/08/12 10:39:39;;;;;;;3.72;3.28;;;27.90;51.50;;;;;;4999906;28;20204;-82
2023/08/12 10:42:06;;;;;;;3.35;3.15;;;27.90;51.70;;;;;;4999363;28;20220;-82
2023/08/12 10:44:40;;;;;;;3.40;3.10;;;27.90;51.60;;;;;;4998252;28;20215;-83
2023/08/12 10:47:09;;;;;;;3.40;3.10;;;27.90;51.70;;;;;;4998800;28;20642;-83
2023/08/12 10:49:39;;;;;;;3.53;3.22;;;27.90;51.90;;;;;;4998966;28;20199;-82
2023/08/12 10:52:07;;;;;;;4.00;3.15;;;27.90;51.90;;;;;;4999441;28;20227;-83
2023/08/12 10:54:34;;;;;;;3.50;3.20;;;27.90;52.20;;;;;;4998373;28;20298;-83
2023/08/12 10:57:11;;;;;;;3.67;3.05;;;27.90;52.20;;;;;;4998553;28;20263;-83
2023/08/12 10:59:52;;;;;;;3.92;3.22;;;27.80;52.40;;;;;;4998835;28;20200;-83
2023/08/12 11:02:19;;;;;;;3.60;2.58;;;27.80;52.10;;;;;;4998159;28;20204;-83
2023/08/12 11:04:50;;;;;;;4.15;3.03;;;27.90;52.20;;;;;;4998111;28;20220;-82
2023/08/12 11:07:19;;;;;;;4.65;3.25;;;27.80;52.40;;;;;;4999334;28;20196;-82
2023/08/12 11:09:46;;;;;;;3.65;3.35;;;27.90;52.50;;;;;;4999470;28;20227;-83
2023/08/12 11:12:18;;;;;;;3.40;3.10;;;27.90;52.10;;;;;;4999153;28;20234;-82
2023/08/12 11:14:49;;;;;;;4.53;3.35;;;28.00;52.20;;;;;;4997788;28;20189;-83
2023/08/12 11:17:16;;;;;;;3.45;3.15;;;28.10;51.60;;;;;;4997207;28;20192;-83
2023/08/12 11:19:43;;;;;;;4.35;3.47;;;28.10;51.60;;;;;;4997554;28;20204;-83
2023/08/12 11:22:12;;;;;;;3.28;2.85;;;28.20;51.80;;;;;;4997794;28;20231;-83
2023/08/12 11:24:41;;;;;;;3.17;2.97;;;28.10;50.60;;;;;;4998025;28;20247;-83
2023/08/12 11:27:10;;;;;;;3.30;3.00;;;28.20;50.70;;;;;;4997844;28;20233;-83
2023/08/12 11:29:38;;;;;;;3.83;3.38;;;28.30;50.70;;;;;;4998275;28;20200;-82
2023/08/12 11:32:06;;;;;;;3.40;3.10;;;28.30;50.70;;;;;;4998908;28;20220;-84
2023/08/12 11:34:33;;;;;;;3.95;3.17;;;28.30;50.60;;;;;;4998505;28;20193;-82
2023/08/12 11:37:00;;;;;;;6.45;3.28;;;28.40;50.70;;;;;;4999171;28;20200;-84
2023/08/12 11:39:27;;;;;;;4.03;3.15;;;28.40;50.80;;;;;;5000470;28;20570;-86
2023/08/12 11:41:57;;;;;;;3.88;3.50;;;28.40;51.10;;;;;;5002584;28;20216;-82
2023/08/12 11:44:24;;;;;;;3.72;3.25;;;28.40;51.20;;;;;;5002329;28;20212;-82
2023/08/12 11:46:51;;;;;;;6.03;3.22;;;28.50;51.00;;;;;;5002024;28;20604;-82
2023/08/12 11:49:18;;;;;;;3.58;3.28;;;28.50;51.00;;;;;;4986171;28;20207;-82
2023/08/12 11:51:46;;;;;;;3.67;3.28;;;28.50;50.90;;;;;;5002956;28;20235;-81
2023/08/12 11:54:13;;;;;;;4.22;3.42;;;28.60;51.10;;;;;;5002619;28;20196;-81
2023/08/12 11:56:40;;;;;;;4.88;3.55;;;28.60;51.20;;;;;;5002796;28;20200;-82
2023/08/12 11:59:08;;;;;;;4.60;3.50;;;28.70;51.10;;;;;;5002889;28;20254;-83
2023/08/12 12:01:35;;;;;;;3.60;3.30;;;28.80;50.80;;;;;;5002873;28;20737;-81
2023/08/12 12:04:02;;;;;;;3.55;3.00;;;28.70;50.90;;;;;;4986150;28;20270;-81
2023/08/12 12:06:31;;;;;;;4.05;3.67;;;28.70;51.10;;;;;;5002015;28;20204;-80
2023/08/12 12:09:02;;;;;;;3.47;3.17;;;28.70;51.10;;;;;;5019523;28;20184;-80
2023/08/12 12:11:31;;;;;;;3.38;3.03;;;28.70;51.20;;;;;;5002731;28;20224;-80
2023/08/12 12:14:00;;;;;;;3.88;3.47;;;28.70;51.00;;;;;;4985800;28;20196;-80
2023/08/12 12:16:39;;;;;;;3.33;3.03;;;28.60;50.80;;;;;;5000986;28;20200;-80
2023/08/12 12:19:07;;;;;;;3.95;3.10;;;28.60;50.20;;;;;;5000938;28;20196;-80
2023/08/12 12:21:40;;;;;;;3.40;3.10;;;28.50;50.40;;;;;;5018889;28;20227;-80
2023/08/12 12:24:07;;;;;;;3.85;3.55;;;28.50;50.70;;;;;;5002091;28;20265;-81
2023/08/12 12:26:35;;;;;;;3.97;3.50;;;28.40;53.80;;;;;;5000482;28;20208;-81
2023/08/12 12:29:03;;;;;;;4.07;3.70;;;28.30;53.30;;;;;;5000584;28;20639;-83
2023/08/12 12:31:30;;;;;;;4.15;3.33;;;28.30;53.00;;;;;;5000602;28;20231;-81
2023/08/12 12:33:58;;;;;;;5.15;3.88;;;28.20;53.30;;;;;;5001768;28;20196;-82
2023/08/12 12:36:25;;;;;;;4.13;3.72;;;28.10;53.50;;;;;;5000544;28;20575;-82
2023/08/12 12:38:52;;;;;;;4.05;3.65;;;28.00;53.80;;;;;;5001247;28;20231;-81
2023/08/12 12:41:19;;;;;;;4.80;3.65;;;28.00;54.30;;;;;;5001496;28;20228;-82
2023/08/12 12:43:46;;;;;;;4.43;3.53;;;27.90;57.80;;;;;;5003755;28;20212;-81
2023/08/12 12:46:13;;;;;;;4.28;3.50;;;27.80;56.10;;;;;;5003074;28;20204;-82
2023/08/12 12:48:40;;;;;;;4.30;3.00;;;27.70;61.20;;;;;;5001484;28;20607;-81